Time;durP1;ratioP1;P1;durP2;ratioP2;P2;SDS_P1;SDS_P2;PMS_P1;PMS_P2;Temp;Humidity;BMP_temperature;BMP_pressure;BME280_temperature;BME280_humidity;BME280_pressure;Samples;Min_cycle;Max_cycle;Signal;HPM_P1;HPM_P2
2022/08/31 00:06:17;;;;;;;4.73;2.00;;;;;;;;;;5084602;28;20519;-66
2022/08/31 00:08:43;;;;;;;1.65;1.30;;;;;;;;;;5072500;28;20489;-66
2022/08/31 00:11:12;;;;;;;3.78;2.10;;;;;;;;;;5071579;28;20079;-66
2022/08/31 00:13:40;;;;;;;2.15;1.73;;;;;;;;;;5080999;28;20056;-66
2022/08/31 00:16:07;;;;;;;1.17;1.08;;;;;;;;;;5089833;28;20432;-66
2022/08/31 00:18:34;;;;;;;3.42;1.33;;;;;;;;;;5089078;28;20055;-66
2022/08/31 00:21:00;;;;;;;2.20;1.42;;;;;;;;;;5076809;28;20057;-66
2022/08/31 00:23:26;;;;;;;2.03;1.30;;;;;;;;;;5071663;28;20946;-66
2022/08/31 00:25:53;;;;;;;1.90;1.45;;;;;;;;;;5077443;28;20057;-66
2022/08/31 00:28:19;;;;;;;1.98;1.38;;;;;;;;;;5083397;28;20053;-66
2022/08/31 00:30:45;;;;;;;1.42;1.17;;;;;;;;;;5071733;28;20053;-66
2022/08/31 00:33:12;;;;;;;3.47;1.80;;;;;;;;;;5071814;28;20144;-66
2022/08/31 00:35:40;;;;;;;2.72;1.40;;;;;;;;;;5073549;28;20743;-66
2022/08/31 00:38:07;;;;;;;2.95;1.40;;;;;;;;;;5081370;28;20049;-66
2022/08/31 00:40:34;;;;;;;3.60;1.38;;;;;;;;;;5080526;28;20543;-66
2022/08/31 00:43:10;;;;;;;4.15;1.58;;;;;;;;;;5080677;28;20056;-66
2022/08/31 00:45:36;;;;;;;2.58;1.40;;;;;;;;;;5088402;28;20048;-66
2022/08/31 00:48:03;;;;;;;2.10;1.63;;;;;;;;;;5080802;28;20231;-66
2022/08/31 00:50:29;;;;;;;2.00;1.52;;;;;;;;;;5074311;28;20057;-66
2022/08/31 00:52:58;;;;;;;3.28;1.92;;;;;;;;;;5090221;28;20051;-66
2022/08/31 00:55:24;;;;;;;2.10;1.30;;;;;;;;;;5080972;28;20056;-65
2022/08/31 00:57:52;;;;;;;4.03;1.77;;;;;;;;;;5084369;28;20501;-66
2022/08/31 01:00:22;;;;;;;2.40;1.25;;;;;;;;;;5088684;28;20063;-66
2022/08/31 01:02:48;;;;;;;2.03;1.10;;;;;;;;;;5075996;28;20060;-65
2022/08/31 01:05:15;;;;;;;2.72;1.23;;;;;;;;;;5077989;28;20056;-66
2022/08/31 01:07:43;;;;;;;3.42;1.73;;;;;;;;;;5075067;28;20052;-66
2022/08/31 01:10:10;;;;;;;2.20;1.30;;;;;;;;;;5093744;28;20058;-66
2022/08/31 01:12:36;;;;;;;2.65;1.40;;;;;;;;;;5087593;28;20045;-66
2022/08/31 01:15:05;;;;;;;6.15;1.58;;;;;;;;;;5082528;28;20140;-66
2022/08/31 01:17:32;;;;;;;2.22;1.60;;;;;;;;;;5088472;28;20048;-66
2022/08/31 01:20:12;;;;;;;2.83;1.35;;;;;;;;;;5083147;28;20049;-65
2022/08/31 01:22:58;;;;;;;3.10;1.55;;;;;;;;;;5074233;28;20056;-66
2022/08/31 01:25:24;;;;;;;2.00;1.40;;;;;;;;;;5074257;28;20051;-66
2022/08/31 01:28:00;;;;;;;2.47;1.40;;;;;;;;;;5076019;28;20119;-66
2022/08/31 01:30:27;;;;;;;2.78;1.30;;;;;;;;;;5078181;28;20276;-66
2022/08/31 01:32:53;;;;;;;2.53;1.50;;;;;;;;;;5074185;28;20045;-65
2022/08/31 01:35:19;;;;;;;1.40;1.30;;;;;;;;;;5092024;28;20048;-66
2022/08/31 01:37:46;;;;;;;7.50;1.60;;;;;;;;;;5076906;28;20061;-66
2022/08/31 01:40:12;;;;;;;1.63;1.20;;;;;;;;;;5093494;28;20048;-66
2022/08/31 01:42:38;;;;;;;3.45;1.52;;;;;;;;;;5088678;28;20064;-65
2022/08/31 01:45:05;;;;;;;1.48;1.20;;;;;;;;;;5087044;28;20057;-66
2022/08/31 01:47:33;;;;;;;3.85;1.38;;;;;;;;;;5107489;28;20074;-66
2022/08/31 01:49:59;;;;;;;1.70;1.30;;;;;;;;;;5076174;28;20052;-66
2022/08/31 01:52:26;;;;;;;1.77;1.40;;;;;;;;;;5082378;28;20144;-65
2022/08/31 01:54:53;;;;;;;1.23;1.13;;;;;;;;;;5073534;28;20588;-66
2022/08/31 01:57:20;;;;;;;1.52;1.35;;;;;;;;;;5073466;28;20053;-66
2022/08/31 01:59:59;;;;;;;1.88;1.40;;;;;;;;;;5084852;28;20059;-66
2022/08/31 02:02:26;;;;;;;1.58;1.48;;;;;;;;;;5082333;28;20151;-66
2022/08/31 02:04:52;;;;;;;9.35;1.50;;;;;;;;;;5085090;28;20471;-65
2022/08/31 02:07:18;;;;;;;2.40;1.10;;;;;;;;;;5093110;28;20048;-65
2022/08/31 02:09:45;;;;;;;1.90;1.33;;;;;;;;;;5091655;28;20063;-66
2022/08/31 02:12:11;;;;;;;2.10;1.85;;;;;;;;;;5082620;28;20053;-65
2022/08/31 02:14:38;;;;;;;1.27;1.02;;;;;;;;;;5083572;28;20063;-66
2022/08/31 02:17:04;;;;;;;1.73;1.25;;;;;;;;;;5086453;28;20052;-66
2022/08/31 02:19:31;;;;;;;1.58;1.35;;;;;;;;;;5073599;28;20053;-66
2022/08/31 02:21:57;;;;;;;1.85;1.00;;;;;;;;;;5085980;28;20056;-66
2022/08/31 02:24:24;;;;;;;2.55;1.55;;;;;;;;;;5085465;28;20485;-66
2022/08/31 02:26:50;;;;;;;1.60;1.20;;;;;;;;;;5073237;28;20515;-66
2022/08/31 02:29:19;;;;;;;1.77;1.50;;;;;;;;;;5088243;28;20065;-65
2022/08/31 02:31:45;;;;;;;2.95;1.40;;;;;;;;;;5097051;28;20463;-65
2022/08/31 02:34:12;;;;;;;2.10;1.40;;;;;;;;;;5075791;28;20135;-66
2022/08/31 02:36:39;;;;;;;4.22;1.50;;;;;;;;;;5092528;28;20053;-66
2022/08/31 02:39:06;;;;;;;2.50;1.80;;;;;;;;;;5091580;28;20087;-65
2022/08/31 02:41:33;;;;;;;4.85;1.90;;;;;;;;;;5089406;28;20063;-66
2022/08/31 02:43:59;;;;;;;2.35;1.83;;;;;;;;;;5087801;28;20182;-65
2022/08/31 02:46:26;;;;;;;4.28;2.40;;;;;;;;;;5081181;28;20502;-66
2022/08/31 02:48:52;;;;;;;4.30;2.25;;;;;;;;;;5071858;28;20908;-65
2022/08/31 02:51:18;;;;;;;3.30;2.13;;;;;;;;;;5072455;28;20064;-66
2022/08/31 02:53:45;;;;;;;3.30;1.92;;;;;;;;;;5073088;28;20063;-66
2022/08/31 02:56:12;;;;;;;2.95;2.08;;;;;;;;;;5087091;28;20056;-66
2022/08/31 02:58:40;;;;;;;2.10;1.70;;;;;;;;;;5072576;28;20045;-66
2022/08/31 03:01:07;;;;;;;5.03;1.80;;;;;;;;;;5072682;28;20052;-66
2022/08/31 03:03:33;;;;;;;3.55;1.60;;;;;;;;;;5072531;28;20149;-66
2022/08/31 03:06:00;;;;;;;2.50;1.55;;;;;;;;;;5076848;28;20582;-66
2022/08/31 03:08:27;;;;;;;4.10;2.10;;;;;;;;;;5084766;28;20061;-66
2022/08/31 03:10:56;;;;;;;1.90;1.60;;;;;;;;;;5088754;28;20053;-66
2022/08/31 03:13:22;;;;;;;1.60;1.50;;;;;;;;;;5089941;28;20052;-66
2022/08/31 03:15:48;;;;;;;2.55;1.50;;;;;;;;;;5090947;28;20052;-66
2022/08/31 03:18:15;;;;;;;1.40;1.10;;;;;;;;;;5079260;28;20060;-66
2022/08/31 03:20:41;;;;;;;3.63;1.40;;;;;;;;;;5072278;28;20049;-66
2022/08/31 03:23:08;;;;;;;1.67;1.05;;;;;;;;;;5083984;28;20063;-66
2022/08/31 03:25:35;;;;;;;1.45;1.35;;;;;;;;;;5080645;28;20051;-66
2022/08/31 03:28:04;;;;;;;4.72;1.48;;;;;;;;;;5076342;28;20080;-66
2022/08/31 03:30:31;;;;;;;1.33;1.23;;;;;;;;;;5072370;28;20064;-66
2022/08/31 03:32:57;;;;;;;1.45;1.02;;;;;;;;;;5089111;28;20052;-66
2022/08/31 03:35:28;;;;;;;2.08;1.35;;;;;;;;;;5071842;28;20057;-66
2022/08/31 03:37:55;;;;;;;2.15;1.38;;;;;;;;;;5072112;28;20519;-65
2022/08/31 03:40:21;;;;;;;1.65;1.35;;;;;;;;;;5085186;28;20055;-65
2022/08/31 03:42:48;;;;;;;3.85;1.88;;;;;;;;;;5092438;28;20052;-66
2022/08/31 03:45:15;;;;;;;1.98;1.40;;;;;;;;;;5087894;28;20055;-66
2022/08/31 03:47:42;;;;;;;5.20;1.63;;;;;;;;;;5089562;28;20144;-66
2022/08/31 03:50:10;;;;;;;2.00;1.58;;;;;;;;;;5075283;28;20452;-65
2022/08/31 03:52:37;;;;;;;2.97;1.75;;;;;;;;;;5075994;28;20356;-66
2022/08/31 03:55:04;;;;;;;4.70;1.80;;;;;;;;;;5083346;28;20063;-66
2022/08/31 03:57:30;;;;;;;1.63;1.50;;;;;;;;;;5090354;28;20049;-66
2022/08/31 03:59:57;;;;;;;2.10;1.58;;;;;;;;;;5085721;28;20067;-66
2022/08/31 04:02:23;;;;;;;3.90;1.60;;;;;;;;;;5081392;28;20060;-66
2022/08/31 04:04:50;;;;;;;1.60;1.50;;;;;;;;;;5099438;28;20056;-66
2022/08/31 04:07:17;;;;;;;4.13;1.95;;;;;;;;;;5070956;28;20516;-66
2022/08/31 04:09:44;;;;;;;1.80;1.63;;;;;;;;;;5071454;28;20053;-66
2022/08/31 04:12:10;;;;;;;3.97;1.50;;;;;;;;;;5071263;28;20083;-66
2022/08/31 04:14:37;;;;;;;2.05;1.85;;;;;;;;;;5087855;28;20053;-66
2022/08/31 04:17:03;;;;;;;2.30;1.40;;;;;;;;;;5084640;28;20053;-66
2022/08/31 04:19:30;;;;;;;2.53;1.67;;;;;;;;;;5092857;28;20099;-66
2022/08/31 04:21:56;;;;;;;2.10;1.38;;;;;;;;;;5087986;28;20052;-66
2022/08/31 04:24:23;;;;;;;2.13;1.40;;;;;;;;;;5089266;28;20496;-66
2022/08/31 04:26:50;;;;;;;1.98;1.48;;;;;;;;;;5076094;28;20057;-66
2022/08/31 04:29:16;;;;;;;2.00;1.45;;;;;;;;;;5091106;28;20063;-66
2022/08/31 04:31:43;;;;;;;1.90;1.40;;;;;;;;;;5077513;28;20083;-66
2022/08/31 04:34:09;;;;;;;2.80;1.33;;;;;;;;;;5088666;28;20055;-66
2022/08/31 04:36:36;;;;;;;1.42;1.00;;;;;;;;;;5092822;28;20507;-66
2022/08/31 04:39:03;;;;;;;1.20;1.10;;;;;;;;;;5085654;28;20063;-66
2022/08/31 04:41:30;;;;;;;2.40;0.88;;;;;;;;;;5095189;28;20135;-66
2022/08/31 04:43:57;;;;;;;1.33;1.20;;;;;;;;;;5081600;28;20148;-65
2022/08/31 04:46:24;;;;;;;2.00;1.00;;;;;;;;;;5093654;28;20064;-66
2022/08/31 04:48:50;;;;;;;3.00;1.38;;;;;;;;;;5090810;28;20053;-66
2022/08/31 04:51:18;;;;;;;2.72;0.90;;;;;;;;;;5094122;28;20055;-65
2022/08/31 04:53:44;;;;;;;0.82;0.70;;;;;;;;;;5094805;28;20057;-66
2022/08/31 04:56:15;;;;;;;2.67;0.80;;;;;;;;;;5092583;28;20496;-67
2022/08/31 04:58:43;;;;;;;1.40;0.90;;;;;;;;;;5093881;28;20429;-66
2022/08/31 05:01:10;;;;;;;1.90;1.02;;;;;;;;;;5091657;28;20056;-66
2022/08/31 05:03:37;;;;;;;1.00;0.77;;;;;;;;;;5094163;28;20078;-66
2022/08/31 05:06:03;;;;;;;5.03;1.20;;;;;;;;;;5094764;28;20053;-67
2022/08/31 05:08:29;;;;;;;2.33;1.15;;;;;;;;;;5094070;28;20055;-66
2022/08/31 05:10:56;;;;;;;1.52;0.70;;;;;;;;;;5085761;28;20049;-66
2022/08/31 05:13:23;;;;;;;1.80;0.98;;;;;;;;;;5088888;28;20056;-67
2022/08/31 05:15:49;;;;;;;3.78;0.90;;;;;;;;;;5093299;28;20052;-66
2022/08/31 05:18:20;;;;;;;1.65;1.02;;;;;;;;;;5081027;28;20049;-66
2022/08/31 05:20:47;;;;;;;0.90;0.80;;;;;;;;;;5074616;28;20053;-66
2022/08/31 05:23:13;;;;;;;1.85;1.10;;;;;;;;;;5073811;28;20049;-66
2022/08/31 05:25:39;;;;;;;1.55;0.88;;;;;;;;;;5088860;28;20138;-66
2022/08/31 05:28:06;;;;;;;2.08;1.23;;;;;;;;;;5092733;28;20056;-66
2022/08/31 05:30:33;;;;;;;1.83;1.23;;;;;;;;;;5091915;28;20048;-66
2022/08/31 05:32:59;;;;;;;1.38;1.08;;;;;;;;;;5081202;28;20056;-66
2022/08/31 05:35:25;;;;;;;1.80;1.00;;;;;;;;;;5084855;28;20053;-66
2022/08/31 05:37:56;;;;;;;3.95;1.30;;;;;;;;;;5090534;28;20496;-66
2022/08/31 05:40:22;;;;;;;1.48;1.17;;;;;;;;;;5079957;28;20136;-66
2022/08/31 05:42:48;;;;;;;2.45;1.20;;;;;;;;;;5089143;28;20524;-66
2022/08/31 05:45:17;;;;;;;2.22;1.23;;;;;;;;;;5086916;28;20057;-68
2022/08/31 05:47:45;;;;;;;1.65;1.33;;;;;;;;;;5087445;28;20522;-68
2022/08/31 05:50:11;;;;;;;6.07;1.45;;;;;;;;;;5085184;28;20509;-68
2022/08/31 05:52:38;;;;;;;3.45;1.30;;;;;;;;;;5089445;28;20089;-67
2022/08/31 05:55:04;;;;;;;6.50;1.50;;;;;;;;;;5075734;28;20064;-66
2022/08/31 05:57:30;;;;;;;2.20;1.63;;;;;;;;;;5085298;28;20049;-67
2022/08/31 05:59:57;;;;;;;3.08;2.10;;;;;;;;;;5092566;28;20135;-66
2022/08/31 06:02:24;;;;;;;2.20;1.27;;;;;;;;;;5094565;28;20147;-67
2022/08/31 06:04:54;;;;;;;3.15;1.67;;;;;;;;;;5081196;28;20060;-67
2022/08/31 06:07:20;;;;;;;2.33;1.33;;;;;;;;;;5089996;28;20056;-67
2022/08/31 06:09:47;;;;;;;4.43;1.55;;;;;;;;;;5089341;28;20055;-67
2022/08/31 06:12:13;;;;;;;3.20;1.30;;;;;;;;;;5091381;28;20059;-67
2022/08/31 06:14:40;;;;;;;2.10;1.20;;;;;;;;;;5088358;28;20058;-66
2022/08/31 06:17:11;;;;;;;2.00;1.17;;;;;;;;;;5092587;28;20498;-66
2022/08/31 06:19:38;;;;;;;2.15;1.33;;;;;;;;;;5090793;28;20059;-68
2022/08/31 06:22:04;;;;;;;1.30;1.00;;;;;;;;;;5092643;28;20079;-68
2022/08/31 06:24:30;;;;;;;2.72;1.05;;;;;;;;;;5089453;28;20049;-68
2022/08/31 06:26:57;;;;;;;1.83;1.30;;;;;;;;;;5093044;28;20408;-68
2022/08/31 06:29:25;;;;;;;1.30;1.20;;;;;;;;;;5081060;28;20601;-69
2022/08/31 06:31:52;;;;;;;5.05;1.10;;;;;;;;;;5080934;28;20078;-68
2022/08/31 06:34:20;;;;;;;1.98;1.27;;;;;;;;;;5091732;28;20467;-69
2022/08/31 06:36:47;;;;;;;3.97;1.05;;;;;;;;;;5079449;28;20052;-69
2022/08/31 06:39:14;;;;;;;3.15;1.25;;;;;;;;;;5076907;28;20057;-67
2022/08/31 06:41:41;;;;;;;2.38;1.23;;;;;;;;;;5077649;28;20869;-67
2022/08/31 06:44:09;;;;;;;1.42;1.13;;;;;;;;;;5075961;28;20045;-67
2022/08/31 06:46:37;;;;;;;2.47;0.90;;;;;;;;;;5074329;28;20061;-67
2022/08/31 06:49:04;;;;;;;2.58;0.80;;;;;;;;;;5076258;28;20136;-66
2022/08/31 06:51:36;;;;;;;3.58;1.02;;;;;;;;;;5081807;28;20056;-65
2022/08/31 06:54:03;;;;;;;3.40;1.17;;;;;;;;;;5089176;28;20056;-65
2022/08/31 06:56:50;;;;;;;1.55;1.20;;;;;;;;;;5075575;28;20063;-66
2022/08/31 06:59:16;;;;;;;3.13;1.10;;;;;;;;;;5090711;28;20056;-66
2022/08/31 07:01:42;;;;;;;1.10;1.00;;;;;;;;;;5092010;28;20059;-66
2022/08/31 07:04:10;;;;;;;2.20;1.23;;;;;;;;;;5095552;28;20048;-64
2022/08/31 07:06:37;;;;;;;1.83;1.15;;;;;;;;;;5098221;28;20053;-66
2022/08/31 07:09:06;;;;;;;3.53;1.17;;;;;;;;;;5087803;28;20052;-65
2022/08/31 07:11:39;;;;;;;1.65;1.00;;;;;;;;;;5072684;28;20492;-66
2022/08/31 07:14:13;;;;;;;0.88;0.80;;;;;;;;;;5072188;28;20136;-67
2022/08/31 07:16:40;;;;;;;2.97;1.20;;;;;;;;;;5071250;28;20079;-67
2022/08/31 07:19:07;;;;;;;1.35;1.25;;;;;;;;;;5085527;28;20092;-68
2022/08/31 07:21:39;;;;;;;1.10;1.00;;;;;;;;;;5091410;28;20048;-68
2022/08/31 07:24:06;;;;;;;2.78;1.02;;;;;;;;;;5072922;28;20106;-67
2022/08/31 07:26:35;;;;;;;1.27;0.98;;;;;;;;;;5072788;28;20061;-67
2022/08/31 07:29:06;;;;;;;1.40;1.13;;;;;;;;;;5072106;28;20548;-68
2022/08/31 07:31:41;;;;;;;0.90;0.90;;;;;;;;;;5072793;28;20053;-68
2022/08/31 07:34:09;;;;;;;2.38;1.10;;;;;;;;;;5077979;28;20132;-68
2022/08/31 07:42:07;;;;;;;1.65;1.15;;;;;;;;;;5076194;28;20051;-70
2022/08/31 07:42:11;;;;;;;1.90;1.00;;;;;;;;;;5087869;28;20059;-67
2022/08/31 07:44:40;;;;;;;1.00;1.00;;;;;;;;;;5092179;28;20050;-67
2022/08/31 07:47:10;;;;;;;2.08;1.10;;;;;;;;;;5087513;28;20056;-66
2022/08/31 07:49:49;;;;;;;1.88;1.10;;;;;;;;;;5092044;28;20171;-66
2022/08/31 07:52:20;;;;;;;1.27;1.17;;;;;;;;;;5091933;28;20090;-67
2022/08/31 07:54:47;;;;;;;3.58;1.10;;;;;;;;;;5091780;28;20063;-68
2022/08/31 07:57:14;;;;;;;1.67;1.27;;;;;;;;;;5088269;28;20140;-66
2022/08/31 07:59:53;;;;;;;2.47;1.80;;;;;;;;;;5085195;28;20063;-67
2022/08/31 08:02:20;;;;;;;4.72;1.25;;;;;;;;;;5078928;28;20059;-69
2022/08/31 08:04:52;;;;;;;2.90;1.00;;;;;;;;;;5093081;28;20052;-67
2022/08/31 08:07:18;;;;;;;6.88;1.40;;;;;;;;;;5091474;28;20056;-69
2022/08/31 08:09:46;;;;;;;1.17;1.08;;;;;;;;;;5090297;28;20056;-67
2022/08/31 08:12:14;;;;;;;1.40;1.30;;;;;;;;;;5087314;28;20049;-67
2022/08/31 08:14:40;;;;;;;5.40;1.23;;;;;;;;;;5074385;28;20072;-68
2022/08/31 08:17:07;;;;;;;3.58;1.23;;;;;;;;;;5081394;28;20915;-69
2022/08/31 08:19:33;;;;;;;4.07;1.02;;;;;;;;;;5077958;28;20057;-67
2022/08/31 08:22:01;;;;;;;2.03;1.48;;;;;;;;;;5072004;28;20160;-67
2022/08/31 08:24:29;;;;;;;2.60;1.20;;;;;;;;;;5087249;28;20538;-67
2022/08/31 08:26:57;;;;;;;3.63;1.38;;;;;;;;;;5081130;28;20060;-68
2022/08/31 08:29:25;;;;;;;2.33;1.63;;;;;;;;;;5090810;28;20053;-68
2022/08/31 08:31:52;;;;;;;4.00;1.27;;;;;;;;;;5090700;28;20056;-66
2022/08/31 08:34:22;;;;;;;6.47;1.50;;;;;;;;;;5084898;28;20048;-67
2022/08/31 08:36:57;;;;;;;1.63;1.45;;;;;;;;;;5084504;28;20053;-66
2022/08/31 08:39:24;;;;;;;5.97;1.40;;;;;;;;;;5082216;28;20057;-68
2022/08/31 08:41:51;;;;;;;1.63;1.05;;;;;;;;;;5073053;28;20083;-68
2022/08/31 08:44:25;;;;;;;2.88;1.70;;;;;;;;;;5070399;28;20049;-68
2022/08/31 08:47:05;;;;;;;3.20;1.20;;;;;;;;;;5092556;28;20053;-67
2022/08/31 08:49:35;;;;;;;2.70;1.17;;;;;;;;;;5089185;28;20074;-66
2022/08/31 08:52:20;;;;;;;3.50;1.17;;;;;;;;;;5071390;28;20059;-67
2022/08/31 08:54:48;;;;;;;1.83;0.80;;;;;;;;;;5087662;28;20057;-66
2022/08/31 08:57:19;;;;;;;2.28;0.88;;;;;;;;;;5091727;28;20064;-67
2022/08/31 08:59:46;;;;;;;2.35;1.00;;;;;;;;;;5097581;27;20048;-67
2022/08/31 09:02:20;;;;;;;4.00;1.27;;;;;;;;;;5079580;28;20056;-67
2022/08/31 09:05:02;;;;;;;4.40;1.00;;;;;;;;;;5090067;28;20048;-67
2022/08/31 09:07:49;;;;;;;6.28;0.88;;;;;;;;;;5088280;28;20063;-66
2022/08/31 09:10:18;;;;;;;2.88;0.90;;;;;;;;;;5094095;28;20052;-66
2022/08/31 09:12:56;;;;;;;3.65;0.80;;;;;;;;;;5085150;28;20276;-65
2022/08/31 09:15:35;;;;;;;1.27;0.93;;;;;;;;;;5085382;28;20135;-67
2022/08/31 09:18:31;;;;;;;9.48;0.90;;;;;;;;;;5088340;28;20050;-66
2022/08/31 09:20:59;;;;;;;3.70;0.73;;;;;;;;;;5081678;28;20052;-66
2022/08/31 09:23:28;;;;;;;1.00;0.82;;;;;;;;;;5092834;28;20147;-67
2022/08/31 09:25:57;;;;;;;1.85;1.13;;;;;;;;;;5077524;28;20053;-67
2022/08/31 09:28:42;;;;;;;2.47;1.10;;;;;;;;;;5080777;28;20162;-67
2022/08/31 09:31:24;;;;;;;1.35;0.90;;;;;;;;;;5083382;28;20143;-66
2022/08/31 09:33:52;;;;;;;1.35;1.00;;;;;;;;;;5093609;28;20581;-66
2022/08/31 09:36:24;;;;;;;3.42;0.80;;;;;;;;;;5093995;28;20135;-67
2022/08/31 09:38:50;;;;;;;1.73;0.80;;;;;;;;;;5093868;28;20057;-67
2022/08/31 09:41:29;;;;;;;0.93;0.85;;;;;;;;;;5091604;28;20063;-67
2022/08/31 09:44:19;;;;;;;2.00;1.30;;;;;;;;;;5073804;28;20056;-65
2022/08/31 09:46:47;;;;;;;1.17;0.73;;;;;;;;;;5089607;28;20412;-67
2022/08/31 09:49:18;;;;;;;1.90;1.00;;;;;;;;;;5103377;28;20067;-66
2022/08/31 09:51:46;;;;;;;1.58;0.82;;;;;;;;;;5090576;28;20084;-66
2022/08/31 09:57:12;;;;;;;3.80;1.05;;;;;;;;;;5074202;28;20052;-66
2022/08/31 09:59:40;;;;;;;5.47;1.15;;;;;;;;;;5078354;28;20049;-66
2022/08/31 10:02:27;;;;;;;1.50;0.90;;;;;;;;;;5093326;28;20504;-65
2022/08/31 10:04:53;;;;;;;2.92;0.93;;;;;;;;;;5092152;28;20091;-65
2022/08/31 10:07:29;;;;;;;1.85;1.13;;;;;;;;;;5094110;28;20518;-66
2022/08/31 10:09:58;;;;;;;1.00;0.90;;;;;;;;;;5096627;28;20056;-66
2022/08/31 10:12:37;;;;;;;2.20;1.20;;;;;;;;;;5076909;28;20059;-66
2022/08/31 10:15:08;;;;;;;0.98;0.80;;;;;;;;;;5080134;28;20045;-65
2022/08/31 10:17:51;;;;;;;3.38;1.08;;;;;;;;;;5071936;28;20522;-66
2022/08/31 10:20:20;;;;;;;1.42;0.80;;;;;;;;;;5072150;28;20056;-66
2022/08/31 10:22:50;;;;;;;2.80;1.65;;;;;;;;;;5077200;28;20049;-66
2022/08/31 10:25:17;;;;;;;1.42;1.33;;;;;;;;;;5083683;28;20058;-66
2022/08/31 10:27:47;;;;;;;0.90;0.80;;;;;;;;;;5078441;28;20061;-66
2022/08/31 10:30:27;;;;;;;2.97;0.73;;;;;;;;;;5073241;28;20041;-66
2022/08/31 10:33:03;;;;;;;1.75;0.77;;;;;;;;;;5085761;28;20056;-64
2022/08/31 10:35:36;;;;;;;2.40;0.82;;;;;;;;;;5092659;28;20084;-65
2022/08/31 10:38:09;;;;;;;2.70;1.67;;;;;;;;;;5075707;28;20059;-66
2022/08/31 10:40:43;;;;;;;1.40;0.88;;;;;;;;;;5074147;28;20476;-67
2022/08/31 10:43:20;;;;;;;0.80;0.80;;;;;;;;;;5072990;28;20060;-66
2022/08/31 10:45:49;;;;;;;0.73;0.65;;;;;;;;;;5081372;28;20049;-66
2022/08/31 10:48:17;;;;;;;2.03;1.00;;;;;;;;;;5071394;28;20148;-66
2022/08/31 10:50:47;;;;;;;2.05;1.00;;;;;;;;;;5098028;28;20048;-67
2022/08/31 10:53:33;;;;;;;4.40;0.90;;;;;;;;;;5075372;27;20053;-66
2022/08/31 10:56:13;;;;;;;5.25;0.98;;;;;;;;;;5072505;28;20073;-66
2022/08/31 10:58:40;;;;;;;1.08;0.95;;;;;;;;;;5075710;28;20522;-66
2022/08/31 11:01:11;;;;;;;2.33;1.25;;;;;;;;;;5072330;28;20100;-66
2022/08/31 11:03:53;;;;;;;2.05;0.90;;;;;;;;;;5089916;28;20056;-65
2022/08/31 11:06:33;;;;;;;2.45;1.08;;;;;;;;;;5077622;28;20057;-66
2022/08/31 11:09:02;;;;;;;1.10;0.80;;;;;;;;;;5076355;28;20056;-65
2022/08/31 11:11:28;;;;;;;2.35;1.10;;;;;;;;;;5085255;28;20055;-66
2022/08/31 11:13:59;;;;;;;1.50;0.85;;;;;;;;;;5089764;28;20059;-67
2022/08/31 11:16:48;;;;;;;0.98;0.80;;;;;;;;;;5104234;28;20049;-66
2022/08/31 11:19:24;;;;;;;1.20;1.10;;;;;;;;;;5081660;28;20084;-65
2022/08/31 11:22:09;;;;;;;4.50;1.00;;;;;;;;;;5092424;28;20513;-65
2022/08/31 11:24:54;;;;;;;4.82;0.93;;;;;;;;;;5085284;28;20055;-66
2022/08/31 11:27:25;;;;;;;1.33;0.80;;;;;;;;;;5103343;28;20049;-65
2022/08/31 11:29:57;;;;;;;2.45;0.90;;;;;;;;;;5091644;28;20069;-66
2022/08/31 11:32:36;;;;;;;1.13;0.80;;;;;;;;;;5090425;28;20533;-64
2022/08/31 11:35:07;;;;;;;1.33;0.88;;;;;;;;;;5110890;28;20173;-67
2022/08/31 11:37:51;;;;;;;3.42;0.95;;;;;;;;;;5078336;28;20152;-67
2022/08/31 11:40:40;;;;;;;3.47;0.80;;;;;;;;;;5090722;28;20064;-69
2022/08/31 11:43:06;;;;;;;0.90;0.73;;;;;;;;;;5082474;28;20488;-68
2022/08/31 11:45:36;;;;;;;1.15;0.70;;;;;;;;;;5087219;28;20049;-68
2022/08/31 11:48:04;;;;;;;4.38;0.90;;;;;;;;;;5090236;28;20155;-68
2022/08/31 11:50:50;;;;;;;5.43;1.20;;;;;;;;;;5088743;28;20416;-67
2022/08/31 11:53:24;;;;;;;0.93;0.90;;;;;;;;;;5092410;28;20058;-68
2022/08/31 11:55:54;;;;;;;1.90;1.00;;;;;;;;;;5105474;27;20080;-67
2022/08/31 11:58:24;;;;;;;2.70;1.10;;;;;;;;;;5071188;28;20057;-65
2022/08/31 12:01:29;;;;;;;2.70;0.80;;;;;;;;;;5086594;28;20472;-66
2022/08/31 12:04:02;;;;;;;1.75;1.00;;;;;;;;;;5052225;28;20050;-65
2022/08/31 12:06:32;;;;;;;2.10;1.20;;;;;;;;;;5066036;28;20080;-65
2022/08/31 12:09:17;;;;;;;2.95;0.93;;;;;;;;;;5071282;28;20124;-69
2022/08/31 12:11:51;;;;;;;1.52;0.90;;;;;;;;;;5090642;28;20149;-69
2022/08/31 12:14:31;;;;;;;3.50;0.70;;;;;;;;;;5090791;28;20195;-67
2022/08/31 12:17:21;;;;;;;4.30;0.82;;;;;;;;;;5070179;28;20057;-68
2022/08/31 12:19:59;;;;;;;1.55;0.90;;;;;;;;;;5067822;28;20098;-66
2022/08/31 12:25:22;;;;;;;2.70;1.63;;;;;;;;;;5084304;28;20554;-68
2022/08/31 12:28:03;;;;;;;4.15;0.80;;;;;;;;;;5087442;28;20045;-68
2022/08/31 12:30:29;;;;;;;15.45;1.73;;;;;;;;;;5072091;28;20075;-68
2022/08/31 12:33:08;;;;;;;0.90;0.80;;;;;;;;;;5071402;28;20045;-66
2022/08/31 12:35:35;;;;;;;1.27;0.85;;;;;;;;;;5089097;28;20404;-69
2022/08/31 12:38:03;;;;;;;0.90;0.90;;;;;;;;;;5085497;28;20063;-67
2022/08/31 12:40:31;;;;;;;1.50;0.80;;;;;;;;;;5091587;28;20063;-66
2022/08/31 12:43:04;;;;;;;1.90;0.88;;;;;;;;;;5089104;28;20055;-67
2022/08/31 12:45:37;;;;;;;2.00;0.90;;;;;;;;;;5098288;28;20052;-67
2022/08/31 12:48:15;;;;;;;1.17;0.80;;;;;;;;;;5089713;28;20500;-66
2022/08/31 12:50:47;;;;;;;1.98;1.05;;;;;;;;;;5088245;28;20532;-66
2022/08/31 12:53:32;;;;;;;5.70;0.90;;;;;;;;;;5097548;28;20048;-67
2022/08/31 12:56:28;;;;;;;2.10;0.90;;;;;;;;;;5094712;28;20059;-67
2022/08/31 12:59:02;;;;;;;4.18;0.88;;;;;;;;;;5084891;28;20059;-66
2022/08/31 13:01:29;;;;;;;2.72;0.90;;;;;;;;;;5092541;28;20086;-66
2022/08/31 13:04:00;;;;;;;3.65;1.30;;;;;;;;;;5082821;28;20167;-67
2022/08/31 13:06:35;;;;;;;3.78;1.48;;;;;;;;;;5074081;28;20497;-66
2022/08/31 13:09:02;;;;;;;2.95;1.27;;;;;;;;;;5079532;28;20048;-67
2022/08/31 13:11:29;;;;;;;3.17;1.63;;;;;;;;;;5094603;28;20049;-67
2022/08/31 13:14:11;;;;;;;0.80;0.77;;;;;;;;;;5094655;28;20054;-66
2022/08/31 13:16:38;;;;;;;1.08;0.98;;;;;;;;;;5083680;28;20049;-66
2022/08/31 13:19:05;;;;;;;2.45;0.80;;;;;;;;;;5080122;28;20053;-68
2022/08/31 13:21:34;;;;;;;2.03;0.98;;;;;;;;;;5076060;28;20365;-67
2022/08/31 13:24:06;;;;;;;1.55;0.77;;;;;;;;;;5093425;28;20635;-65
2022/08/31 13:26:35;;;;;;;1.58;0.82;;;;;;;;;;5094451;28;20084;-66
2022/08/31 13:29:06;;;;;;;1.38;0.95;;;;;;;;;;5109704;28;20123;-66
2022/08/31 13:31:35;;;;;;;1.15;0.70;;;;;;;;;;5094581;28;20051;-65
2022/08/31 13:34:04;;;;;;;1.00;0.70;;;;;;;;;;5092210;28;20147;-68
2022/08/31 13:36:32;;;;;;;2.22;0.70;;;;;;;;;;5090052;28;20052;-68
2022/08/31 13:39:02;;;;;;;2.47;0.68;;;;;;;;;;5074638;28;20787;-67
2022/08/31 13:41:31;;;;;;;4.22;1.55;;;;;;;;;;5087454;28;20167;-65
2022/08/31 13:44:02;;;;;;;1.10;0.90;;;;;;;;;;5091870;28;20055;-67
2022/08/31 13:46:36;;;;;;;3.65;0.70;;;;;;;;;;5094136;28;20053;-66
2022/08/31 13:49:20;;;;;;;2.25;0.90;;;;;;;;;;5092484;28;20056;-66
2022/08/31 13:51:48;;;;;;;2.65;1.00;;;;;;;;;;5084539;28;20045;-65
2022/08/31 13:54:30;;;;;;;1.08;0.88;;;;;;;;;;5078610;28;20053;-65
2022/08/31 13:57:07;;;;;;;0.80;0.70;;;;;;;;;;5073525;28;20056;-67
2022/08/31 13:59:35;;;;;;;6.30;1.15;;;;;;;;;;5087362;28;20499;-67
2022/08/31 14:02:14;;;;;;;2.90;0.80;;;;;;;;;;5092624;28;20059;-68
2022/08/31 14:07:24;;;;;;;2.45;1.00;;;;;;;;;;5093486;28;20052;-69
2022/08/31 14:09:52;;;;;;;5.13;0.93;;;;;;;;;;5079018;28;20055;-69
2022/08/31 14:12:36;;;;;;;2.78;0.80;;;;;;;;;;5073486;28;20068;-69
2022/08/31 14:15:18;;;;;;;3.80;0.80;;;;;;;;;;5072872;28;20064;-70
2022/08/31 14:17:57;;;;;;;11.18;1.08;;;;;;;;;;5094779;28;20053;-69
2022/08/31 14:20:48;;;;;;;2.38;0.90;;;;;;;;;;5090788;28;20476;-68
2022/08/31 14:23:37;;;;;;;3.13;1.00;;;;;;;;;;5083250;28;20049;-67
2022/08/31 14:26:11;;;;;;;4.68;0.95;;;;;;;;;;5081586;28;20059;-67
2022/08/31 14:28:39;;;;;;;2.75;0.50;;;;;;;;;;5084393;28;20061;-67
2022/08/31 14:31:27;;;;;;;0.68;0.68;;;;;;;;;;5082905;28;20061;-66
2022/08/31 14:34:13;;;;;;;1.95;1.00;;;;;;;;;;5073654;28;20056;-67
2022/08/31 14:36:53;;;;;;;1.20;0.80;;;;;;;;;;5084667;28;20057;-67
2022/08/31 14:39:23;;;;;;;1.23;0.80;;;;;;;;;;5080031;28;20060;-69
2022/08/31 14:41:51;;;;;;;4.53;0.70;;;;;;;;;;5108234;28;20132;-66
2022/08/31 14:44:20;;;;;;;1.65;1.02;;;;;;;;;;5091861;28;20052;-68
2022/08/31 14:46:46;;;;;;;1.27;1.00;;;;;;;;;;5085736;28;20045;-68
2022/08/31 14:49:12;;;;;;;1.38;1.05;;;;;;;;;;5082627;28;20053;-68
2022/08/31 14:51:40;;;;;;;1.55;0.90;;;;;;;;;;5083617;28;20064;-67
2022/08/31 14:54:07;;;;;;;1.08;0.80;;;;;;;;;;5081437;28;20520;-68
2022/08/31 14:56:37;;;;;;;3.50;0.90;;;;;;;;;;5091976;28;20064;-68
2022/08/31 14:59:05;;;;;;;2.13;0.95;;;;;;;;;;5090399;28;20063;-67
2022/08/31 15:01:34;;;;;;;1.67;1.00;;;;;;;;;;5092831;28;20504;-67
2022/08/31 15:04:02;;;;;;;2.58;0.80;;;;;;;;;;5086663;28;20053;-69
2022/08/31 15:06:30;;;;;;;7.20;1.52;;;;;;;;;;5091736;28;20052;-67
2022/08/31 15:08:57;;;;;;;6.28;0.82;;;;;;;;;;5089277;28;20049;-67
2022/08/31 15:11:24;;;;;;;1.95;1.00;;;;;;;;;;5092493;28;20052;-66
2022/08/31 15:13:51;;;;;;;0.85;0.82;;;;;;;;;;5091888;28;20052;-67
2022/08/31 15:16:17;;;;;;;2.50;0.70;;;;;;;;;;5091775;28;20062;-67
2022/08/31 15:18:44;;;;;;;2.85;1.35;;;;;;;;;;5089836;28;20060;-67